Time;durP1;ratioP1;P1;durP2;ratioP2;P2;SDS_P1;SDS_P2;PMS_P1;PMS_P2;Temp;Humidity;BMP_temperature;BMP_pressure;BME280_temperature;BME280_humidity;BME280_pressure;Samples;Min_cycle;Max_cycle;Signal;HPM_P1;HPM_P2
2022/06/15 00:01:13;;;;;;;3.67;2.53;;;16.00;99.90;;;;;;5010177;28;20380;-73
2022/06/15 00:03:40;;;;;;;2.43;2.20;;;16.00;99.90;;;;;;5009909;28;20209;-74
2022/06/15 00:06:10;;;;;;;2.97;2.53;;;16.00;99.90;;;;;;5009758;28;20236;-73
2022/06/15 00:08:38;;;;;;;3.37;2.40;;;16.00;99.90;;;;;;5009863;28;20590;-73
2022/06/15 00:11:10;;;;;;;2.57;2.30;;;15.90;99.90;;;;;;5009506;28;20216;-72
2022/06/15 00:13:37;;;;;;;2.80;2.37;;;15.90;99.90;;;;;;5009626;28;20216;-72
2022/06/15 00:16:08;;;;;;;3.17;2.40;;;15.80;99.90;;;;;;5009167;28;20209;-72
2022/06/15 00:18:36;;;;;;;3.80;2.50;;;15.80;99.90;;;;;;5009435;28;20204;-72
2022/06/15 00:21:07;;;;;;;3.27;2.53;;;15.80;99.90;;;;;;5009352;28;20213;-72
2022/06/15 00:23:35;;;;;;;3.27;2.27;;;15.80;99.90;;;;;;5009360;28;20217;-72
2022/06/15 00:26:07;;;;;;;2.40;2.20;;;15.80;99.90;;;;;;5009197;28;20305;-72
2022/06/15 00:28:35;;;;;;;2.80;2.50;;;15.80;99.90;;;;;;5009521;28;20208;-72
2022/06/15 00:31:09;;;;;;;3.33;2.57;;;15.80;99.90;;;;;;5008546;28;20656;-72
2022/06/15 00:33:37;;;;;;;2.33;2.13;;;15.80;99.90;;;;;;5009128;28;20628;-71
2022/06/15 00:36:12;;;;;;;5.90;2.40;;;15.70;99.90;;;;;;5009096;28;20201;-71
2022/06/15 00:38:42;;;;;;;2.80;2.33;;;15.70;99.90;;;;;;5008883;28;20209;-71
2022/06/15 00:41:17;;;;;;;2.73;2.53;;;15.70;99.90;;;;;;5008583;28;20214;-72
2022/06/15 00:43:46;;;;;;;5.43;2.80;;;15.60;99.90;;;;;;5008942;28;20711;-74
2022/06/15 00:46:21;;;;;;;5.70;2.30;;;15.60;99.90;;;;;;5008261;28;20220;-74
2022/06/15 00:48:53;;;;;;;2.83;2.30;;;15.60;99.90;;;;;;5008753;28;20193;-74
2022/06/15 00:51:21;;;;;;;2.30;2.20;;;15.60;99.90;;;;;;5008974;28;20268;-74
2022/06/15 00:53:49;;;;;;;7.80;2.73;;;15.50;99.90;;;;;;5008027;28;20308;-74
2022/06/15 00:56:17;;;;;;;2.73;2.40;;;15.50;99.90;;;;;;5008784;28;20672;-74
2022/06/15 00:58:49;;;;;;;6.50;2.67;;;15.50;99.90;;;;;;5009014;28;20209;-75
2022/06/15 01:01:15;;;;;;;2.67;2.40;;;15.40;99.90;;;;;;4989095;28;20206;-74
2022/06/15 01:03:43;;;;;;;3.10;2.30;;;15.40;99.90;;;;;;4989385;28;20443;-73
2022/06/15 01:06:15;;;;;;;2.70;2.50;;;15.40;99.90;;;;;;4989304;28;20210;-73
2022/06/15 01:08:50;;;;;;;4.80;2.50;;;15.40;99.90;;;;;;4988916;28;20290;-73
2022/06/15 01:11:40;;;;;;;2.63;2.10;;;15.30;99.90;;;;;;4988992;28;20198;-73
2022/06/15 01:14:30;;;;;;;3.40;2.70;;;15.30;99.90;;;;;;4994096;28;20379;-73
2022/06/15 01:17:11;;;;;;;3.00;2.10;;;15.30;99.90;;;;;;4979242;28;20214;-73
2022/06/15 01:20:07;;;;;;;2.43;2.23;;;15.20;99.90;;;;;;4988851;28;20198;-73
2022/06/15 01:23:16;;;;;;;3.20;2.40;;;15.20;99.90;;;;;;5001461;28;20205;-73
2022/06/15 01:25:47;;;;;;;2.33;2.10;;;15.20;99.90;;;;;;4973127;28;20220;-73
2022/06/15 01:28:40;;;;;;;3.83;2.40;;;15.20;99.90;;;;;;5008319;28;20220;-73
2022/06/15 01:31:20;;;;;;;2.70;2.40;;;15.20;99.90;;;;;;5001129;28;20213;-73
2022/06/15 01:34:00;;;;;;;3.90;2.27;;;15.10;99.90;;;;;;4988743;28;20613;-73
2022/06/15 01:36:34;;;;;;;2.30;2.10;;;15.10;99.90;;;;;;4997268;28;20209;-73
2022/06/15 01:39:06;;;;;;;3.33;2.17;;;15.00;99.90;;;;;;5008000;28;20193;-73
2022/06/15 01:41:35;;;;;;;2.50;2.30;;;15.00;99.90;;;;;;5007980;28;20213;-73
2022/06/15 01:44:08;;;;;;;2.03;1.93;;;14.90;99.90;;;;;;5007746;28;20233;-73
2022/06/15 01:46:40;;;;;;;3.13;2.83;;;15.00;99.90;;;;;;5008071;28;20216;-73
2022/06/15 01:49:09;;;;;;;3.73;2.23;;;14.90;99.90;;;;;;4988188;28;20221;-73
2022/06/15 01:51:42;;;;;;;3.43;2.20;;;14.90;99.90;;;;;;5003572;28;20213;-73
2022/06/15 01:54:12;;;;;;;2.97;2.60;;;14.90;99.90;;;;;;5007558;28;20193;-73
2022/06/15 01:56:43;;;;;;;3.57;2.20;;;14.90;99.90;;;;;;4993702;28;20217;-73
2022/06/15 01:59:17;;;;;;;4.70;2.30;;;14.90;99.90;;;;;;4988138;28;20216;-73
2022/06/15 02:01:55;;;;;;;3.83;2.30;;;14.90;99.90;;;;;;5005043;28;20231;-74
2022/06/15 02:04:29;;;;;;;3.53;2.40;;;14.90;99.90;;;;;;5009268;28;20193;-73
2022/06/15 02:07:14;;;;;;;3.10;2.03;;;14.80;99.90;;;;;;5011548;28;20197;-73
2022/06/15 02:09:48;;;;;;;2.50;2.30;;;14.80;99.90;;;;;;5011707;28;20190;-73
2022/06/15 02:12:21;;;;;;;2.50;2.30;;;14.70;99.90;;;;;;5011671;28;20557;-72
2022/06/15 02:14:52;;;;;;;2.53;2.20;;;14.70;99.90;;;;;;5009352;28;20205;-72
2022/06/15 02:17:24;;;;;;;4.03;2.07;;;14.70;99.90;;;;;;5003943;28;20202;-72
2022/06/15 02:19:57;;;;;;;2.67;2.47;;;14.80;99.90;;;;;;5011677;28;20189;-71
2022/06/15 02:22:29;;;;;;;2.83;2.57;;;14.80;99.90;;;;;;5011601;28;20599;-71
2022/06/15 02:24:59;;;;;;;2.80;2.60;;;14.70;99.90;;;;;;4991560;28;20663;-71
2022/06/15 02:27:29;;;;;;;2.97;2.50;;;14.70;99.90;;;;;;4992075;28;20208;-71
2022/06/15 02:30:02;;;;;;;2.53;2.33;;;14.60;99.90;;;;;;5009354;28;20232;-71
2022/06/15 02:32:30;;;;;;;3.80;2.70;;;14.60;99.90;;;;;;5004908;28;20630;-73
2022/06/15 02:34:57;;;;;;;3.03;2.77;;;14.60;99.90;;;;;;4991346;28;20665;-74
2022/06/15 02:37:24;;;;;;;2.67;2.40;;;14.50;99.90;;;;;;4991814;28;20225;-73
2022/06/15 02:39:50;;;;;;;4.60;2.67;;;14.60;99.90;;;;;;4991647;28;20241;-74
2022/06/15 02:42:27;;;;;;;3.03;2.70;;;14.60;99.90;;;;;;5008635;28;20209;-74
2022/06/15 02:44:57;;;;;;;5.47;2.70;;;14.50;99.90;;;;;;5008001;28;20251;-74
2022/06/15 02:47:27;;;;;;;2.77;2.43;;;14.50;99.90;;;;;;5003900;28;20206;-74
2022/06/15 02:49:55;;;;;;;2.67;2.47;;;14.40;99.90;;;;;;5011182;28;20213;-74
2022/06/15 02:52:29;;;;;;;4.00;2.47;;;14.40;99.90;;;;;;5011140;28;20237;-73
2022/06/15 02:54:56;;;;;;;3.23;2.60;;;14.40;99.90;;;;;;5010708;28;20209;-74
2022/06/15 02:57:24;;;;;;;3.53;2.73;;;14.40;99.90;;;;;;5010862;28;20201;-74
2022/06/15 02:59:51;;;;;;;3.07;2.70;;;14.40;99.90;;;;;;5010810;28;20210;-74
2022/06/15 03:02:19;;;;;;;3.10;2.70;;;14.40;99.90;;;;;;5011003;28;20213;-76
2022/06/15 03:04:47;;;;;;;2.70;2.50;;;14.30;99.90;;;;;;5010916;28;20210;-74
2022/06/15 03:07:16;;;;;;;4.37;2.37;;;14.30;99.90;;;;;;5007331;28;20221;-73
2022/06/15 03:09:43;;;;;;;4.47;2.60;;;14.30;99.90;;;;;;5007851;28;20665;-74
2022/06/15 03:12:11;;;;;;;3.00;2.70;;;14.30;99.90;;;;;;5009607;28;20672;-73
2022/06/15 03:14:38;;;;;;;2.90;2.60;;;14.30;99.90;;;;;;5007842;28;20213;-74
2022/06/15 03:17:05;;;;;;;3.37;2.53;;;14.30;99.90;;;;;;4988322;28;20202;-73
2022/06/15 03:19:32;;;;;;;3.13;2.50;;;14.30;99.90;;;;;;4989229;28;20807;-73
2022/06/15 03:21:59;;;;;;;3.63;2.77;;;14.30;99.90;;;;;;4996431;28;20205;-73
2022/06/15 03:24:27;;;;;;;3.23;2.93;;;14.30;99.90;;;;;;5008231;28;20296;-73
2022/06/15 03:26:54;;;;;;;2.60;2.40;;;14.30;99.90;;;;;;5007922;28;20214;-72
2022/06/15 03:29:21;;;;;;;4.07;2.80;;;14.30;99.90;;;;;;5007880;28;20209;-72
2022/06/15 03:31:47;;;;;;;4.90;2.70;;;14.30;99.90;;;;;;5008142;28;20215;-72
2022/06/15 03:34:14;;;;;;;2.77;2.57;;;14.30;99.90;;;;;;5007689;28;20237;-73
2022/06/15 03:36:41;;;;;;;2.57;2.23;;;14.30;99.90;;;;;;5007896;28;20202;-72
2022/06/15 03:39:08;;;;;;;2.57;2.37;;;14.30;99.90;;;;;;5007844;28;20206;-72
2022/06/15 03:41:36;;;;;;;2.57;2.37;;;14.40;99.90;;;;;;5008498;28;20205;-72
2022/06/15 03:44:04;;;;;;;3.30;2.40;;;14.30;99.90;;;;;;5007743;28;20232;-72
2022/06/15 03:46:30;;;;;;;6.53;2.57;;;14.40;99.90;;;;;;5007999;28;20209;-73
2022/06/15 03:48:57;;;;;;;2.80;2.50;;;14.30;99.90;;;;;;5007442;28;20212;-72
2022/06/15 03:51:24;;;;;;;4.43;2.50;;;14.40;99.90;;;;;;5007246;28;20722;-72
2022/06/15 03:53:51;;;;;;;3.63;2.70;;;14.40;99.90;;;;;;5007460;28;20240;-72
2022/06/15 03:56:18;;;;;;;2.73;2.50;;;14.40;99.90;;;;;;5006703;28;20586;-72
2022/06/15 03:58:46;;;;;;;2.93;2.63;;;14.40;99.90;;;;;;5007042;28;20384;-72
2022/06/15 04:01:14;;;;;;;3.57;2.60;;;14.50;99.90;;;;;;5006734;28;20202;-74
2022/06/15 04:03:40;;;;;;;6.03;2.67;;;14.50;99.90;;;;;;5005469;28;20214;-74
2022/06/15 04:06:07;;;;;;;2.90;2.60;;;14.50;99.90;;;;;;5004625;28;20205;-73
2022/06/15 04:08:38;;;;;;;3.30;3.00;;;14.60;99.90;;;;;;5006738;28;20236;-74
2022/06/15 04:11:10;;;;;;;5.53;2.87;;;14.50;99.90;;;;;;5005376;28;20202;-74
2022/06/15 04:13:37;;;;;;;4.53;2.83;;;14.60;99.90;;;;;;5009757;28;20309;-74
2022/06/15 04:16:20;;;;;;;3.93;2.97;;;14.60;99.90;;;;;;5009314;28;20757;-75
2022/06/15 04:18:47;;;;;;;3.63;3.13;;;14.60;99.90;;;;;;5003493;28;20271;-74
2022/06/15 04:21:14;;;;;;;3.23;2.93;;;14.70;99.90;;;;;;5002911;28;20285;-74
2022/06/15 04:23:41;;;;;;;3.53;3.10;;;14.70;99.90;;;;;;5000266;28;20205;-74
2022/06/15 04:26:07;;;;;;;4.30;2.80;;;14.80;99.90;;;;;;5001281;28;20223;-74
2022/06/15 04:28:37;;;;;;;5.13;3.47;;;14.80;99.90;;;;;;4997047;28;20198;-74
2022/06/15 04:31:11;;;;;;;5.33;3.43;;;14.80;99.90;;;;;;4996583;28;20213;-74
2022/06/15 04:33:38;;;;;;;7.33;3.40;;;14.80;99.90;;;;;;5000799;28;20241;-73
2022/06/15 04:36:10;;;;;;;5.60;3.43;;;14.80;99.90;;;;;;5003795;28;20268;-74
2022/06/15 04:38:37;;;;;;;5.20;3.43;;;14.90;99.90;;;;;;4995186;28;20194;-74
2022/06/15 04:41:07;;;;;;;8.10;3.83;;;14.90;99.90;;;;;;5000484;28;20211;-74
2022/06/15 04:43:34;;;;;;;7.23;2.90;;;15.00;99.90;;;;;;5001471;28;20233;-73
2022/06/15 04:46:03;;;;;;;5.33;3.00;;;15.00;99.90;;;;;;5002356;28;20220;-73
2022/06/15 04:48:33;;;;;;;2.90;2.70;;;15.00;99.90;;;;;;5001205;28;20639;-73
2022/06/15 04:51:10;;;;;;;3.90;3.00;;;15.00;99.90;;;;;;5000572;28;20649;-73
2022/06/15 04:53:37;;;;;;;5.03;2.70;;;15.00;99.90;;;;;;5001221;28;20691;-73
2022/06/15 04:56:10;;;;;;;4.87;3.10;;;15.10;99.90;;;;;;5002137;28;20217;-74
2022/06/15 04:58:39;;;;;;;3.93;3.23;;;15.10;99.90;;;;;;5001752;28;20206;-74
2022/06/15 05:01:09;;;;;;;8.00;3.67;;;15.20;99.90;;;;;;5001156;28;20588;-74
2022/06/15 05:03:38;;;;;;;4.50;3.20;;;15.20;99.90;;;;;;5001949;28;20210;-74
2022/06/15 05:06:10;;;;;;;4.07;3.27;;;15.20;99.90;;;;;;5001635;28;20912;-73
2022/06/15 05:08:37;;;;;;;4.73;3.33;;;15.20;99.90;;;;;;4999374;28;20218;-73
2022/06/15 05:11:10;;;;;;;7.97;3.47;;;15.30;99.90;;;;;;5001318;28;20586;-73
2022/06/15 05:13:37;;;;;;;3.77;2.97;;;15.30;99.90;;;;;;5000178;28;20802;-73
2022/06/15 05:16:09;;;;;;;5.63;3.30;;;15.40;99.90;;;;;;5002460;28;20993;-73
2022/06/15 05:18:38;;;;;;;4.37;3.17;;;15.40;99.90;;;;;;4997838;28;20563;-73
2022/06/15 05:21:08;;;;;;;4.80;3.30;;;15.40;99.90;;;;;;5000176;28;20212;-73
2022/06/15 05:23:34;;;;;;;5.43;3.00;;;15.50;99.90;;;;;;5003839;28;20210;-74
2022/06/15 05:26:09;;;;;;;4.97;3.17;;;15.60;99.90;;;;;;4998683;28;20206;-74
2022/06/15 05:28:36;;;;;;;5.93;3.73;;;15.60;99.90;;;;;;5000601;28;20204;-73
2022/06/15 05:31:11;;;;;;;3.90;3.27;;;15.60;99.90;;;;;;5001373;28;20212;-73
2022/06/15 05:33:40;;;;;;;5.40;3.30;;;15.70;99.90;;;;;;5000769;28;20236;-74
2022/06/15 05:36:10;;;;;;;6.33;3.43;;;15.70;99.90;;;;;;4998599;28;20216;-73
2022/06/15 05:38:38;;;;;;;6.07;3.30;;;15.70;99.90;;;;;;4999379;28;20218;-73
2022/06/15 05:41:09;;;;;;;3.07;2.70;;;15.80;99.90;;;;;;5001414;28;20210;-73
2022/06/15 05:43:37;;;;;;;3.87;2.13;;;15.80;99.90;;;;;;4996532;28;20544;-74
2022/06/15 05:46:23;;;;;;;2.73;2.20;;;15.90;99.90;;;;;;5002433;28;20218;-74
2022/06/15 05:48:51;;;;;;;4.80;2.00;;;15.90;99.90;;;;;;4999806;28;20838;-74
2022/06/15 05:51:18;;;;;;;6.20;2.37;;;16.00;99.90;;;;;;5005236;28;20706;-73
2022/06/15 05:53:44;;;;;;;2.60;2.00;;;16.00;99.90;;;;;;5001477;28;20244;-74
2022/06/15 05:56:11;;;;;;;7.57;2.23;;;16.10;99.90;;;;;;5002291;28;20206;-74
2022/06/15 05:58:38;;;;;;;2.83;1.83;;;16.10;99.90;;;;;;5003905;28;20645;-74
2022/06/15 06:01:10;;;;;;;2.07;1.53;;;16.20;99.90;;;;;;5003580;28;20446;-74
2022/06/15 06:03:37;;;;;;;6.00;1.73;;;16.20;99.90;;;;;;4999687;28;20210;-73
2022/06/15 06:06:11;;;;;;;2.90;1.43;;;16.20;99.90;;;;;;5002603;28;20205;-73
2022/06/15 06:08:37;;;;;;;3.07;1.40;;;16.30;99.90;;;;;;4997883;28;20190;-74
2022/06/15 06:11:07;;;;;;;5.23;1.67;;;16.30;99.90;;;;;;5003364;28;20210;-74
2022/06/15 06:13:34;;;;;;;3.07;1.70;;;16.30;99.90;;;;;;5002243;28;20217;-74
2022/06/15 06:16:01;;;;;;;5.67;1.60;;;16.40;99.90;;;;;;5003898;28;20209;-75
2022/06/15 06:18:28;;;;;;;2.40;1.63;;;16.40;99.90;;;;;;5002762;28;21119;-74
2022/06/15 06:20:55;;;;;;;3.27;1.50;;;16.40;99.90;;;;;;5000199;28;20312;-74
2022/06/15 06:23:23;;;;;;;4.90;1.63;;;16.50;99.90;;;;;;5000561;28;20206;-74
2022/06/15 06:25:52;;;;;;;4.47;1.50;;;16.50;99.90;;;;;;4997638;28;20664;-74
2022/06/15 06:28:26;;;;;;;11.83;1.73;;;16.50;99.90;;;;;;5008175;28;20209;-74
2022/06/15 06:30:53;;;;;;;5.87;1.50;;;16.60;99.90;;;;;;5007540;28;20198;-74
2022/06/15 06:33:20;;;;;;;2.63;1.43;;;16.60;99.90;;;;;;5007721;28;20249;-74
2022/06/15 06:35:47;;;;;;;9.67;1.93;;;16.70;99.90;;;;;;5007828;28;20212;-74
2022/06/15 06:38:15;;;;;;;6.73;1.80;;;16.70;99.90;;;;;;5007183;28;20309;-74
2022/06/15 06:40:43;;;;;;;4.50;1.70;;;16.70;99.90;;;;;;4996367;28;20576;-74
2022/06/15 06:43:10;;;;;;;3.03;1.33;;;16.80;99.90;;;;;;5006231;28;20584;-74
2022/06/15 06:45:37;;;;;;;3.70;1.63;;;16.80;99.90;;;;;;5005648;28;20297;-74
2022/06/15 06:48:04;;;;;;;4.87;1.43;;;16.80;99.90;;;;;;5007058;28;20271;-73
2022/06/15 06:50:31;;;;;;;2.50;1.50;;;16.80;99.90;;;;;;5007869;28;20212;-74
2022/06/15 06:52:58;;;;;;;3.87;1.60;;;16.90;99.90;;;;;;5011423;28;20210;-74
2022/06/15 06:55:28;;;;;;;3.90;1.47;;;16.90;99.90;;;;;;5007922;28;20242;-74
2022/06/15 06:57:57;;;;;;;5.13;1.80;;;16.90;99.90;;;;;;4992816;28;20217;-73
2022/06/15 07:00:24;;;;;;;5.63;1.63;;;17.00;99.90;;;;;;5025732;28;20219;-73
2022/06/15 07:02:51;;;;;;;2.10;1.03;;;17.10;99.90;;;;;;5010965;28;20225;-74
2022/06/15 07:05:18;;;;;;;3.80;1.50;;;17.20;99.90;;;;;;5020652;28;20213;-74
2022/06/15 07:07:45;;;;;;;2.90;0.90;;;17.20;99.90;;;;;;5009311;28;20209;-74
2022/06/15 07:10:14;;;;;;;2.00;1.30;;;17.30;99.90;;;;;;5006332;28;20223;-74
2022/06/15 07:12:42;;;;;;;4.70;1.80;;;17.40;99.90;;;;;;5004052;28;20691;-74
2022/06/15 07:15:12;;;;;;;2.40;1.70;;;17.40;99.90;;;;;;5006138;28;20233;-74
2022/06/15 07:17:40;;;;;;;2.53;1.60;;;17.40;99.80;;;;;;5005167;28;20206;-74
2022/06/15 07:20:09;;;;;;;4.00;1.70;;;17.40;99.90;;;;;;5001491;28;20217;-74
2022/06/15 07:22:37;;;;;;;3.00;1.20;;;17.40;99.90;;;;;;5000701;28;20205;-74
2022/06/15 07:25:05;;;;;;;4.00;1.90;;;17.40;99.90;;;;;;5005294;28;20214;-74
2022/06/15 07:27:33;;;;;;;1.87;1.40;;;17.40;99.90;;;;;;5008713;28;20221;-74
2022/06/15 07:30:02;;;;;;;3.20;1.53;;;17.40;99.90;;;;;;5001590;28;20210;-74
2022/06/15 07:32:30;;;;;;;3.27;1.50;;;17.40;99.60;;;;;;5003765;28;20688;-74
2022/06/15 07:34:56;;;;;;;3.43;1.73;;;17.40;99.70;;;;;;5002252;28;20234;-74
2022/06/15 07:37:23;;;;;;;3.50;1.33;;;17.40;99.70;;;;;;5000932;28;20213;-73
2022/06/15 07:39:53;;;;;;;3.10;1.03;;;17.50;99.50;;;;;;4998616;28;20701;-74
2022/06/15 07:42:20;;;;;;;3.77;1.43;;;17.50;99.50;;;;;;5002777;28;20209;-74
2022/06/15 07:44:47;;;;;;;4.17;1.40;;;17.60;99.70;;;;;;5005481;28;20232;-75
2022/06/15 07:49:59;;;;;;;8.37;1.40;;;17.70;99.40;;;;;;5003425;28;20346;-74
2022/06/15 07:52:29;;;;;;;3.10;1.20;;;17.70;99.20;;;;;;5002033;28;20727;-74
2022/06/15 07:54:56;;;;;;;5.67;1.53;;;17.70;99.00;;;;;;5004416;28;20229;-74
2022/06/15 07:57:23;;;;;;;5.83;1.90;;;17.80;99.20;;;;;;5000640;28;20244;-74
2022/06/15 07:59:50;;;;;;;2.93;1.63;;;17.80;99.50;;;;;;5002028;28;20206;-74
2022/06/15 08:02:18;;;;;;;2.53;1.33;;;17.90;99.20;;;;;;5000446;28;20571;-74
2022/06/15 08:04:45;;;;;;;4.37;1.43;;;17.90;99.00;;;;;;4997974;28;20311;-74
2022/06/15 08:07:15;;;;;;;2.67;1.13;;;17.90;98.70;;;;;;5000283;28;20320;-74
2022/06/15 08:09:43;;;;;;;1.40;0.97;;;18.00;98.60;;;;;;5000715;28;20191;-74
2022/06/15 08:12:16;;;;;;;4.40;1.33;;;18.00;98.70;;;;;;5002965;28;20205;-74
2022/06/15 08:14:46;;;;;;;2.70;1.07;;;18.00;98.80;;;;;;4999832;28;20226;-74
2022/06/15 08:17:16;;;;;;;4.20;1.37;;;18.00;98.90;;;;;;5001882;28;20560;-74
2022/06/15 08:19:48;;;;;;;4.30;1.40;;;18.10;98.80;;;;;;4999694;28;20198;-74
2022/06/15 08:22:16;;;;;;;6.33;1.30;;;18.10;98.60;;;;;;5000641;28;20294;-74
2022/06/15 08:24:44;;;;;;;2.00;1.20;;;18.10;98.50;;;;;;5000820;28;20840;-73
2022/06/15 08:27:13;;;;;;;3.73;1.17;;;18.10;98.50;;;;;;5002725;28;20216;-74
2022/06/15 08:29:41;;;;;;;3.07;1.30;;;18.20;98.60;;;;;;5001106;28;20203;-74
2022/06/15 08:32:09;;;;;;;1.83;1.30;;;18.20;98.40;;;;;;5003875;28;20299;-73
2022/06/15 08:34:37;;;;;;;2.97;1.30;;;18.30;98.30;;;;;;5000342;28;20218;-73
2022/06/15 08:37:06;;;;;;;2.33;1.17;;;18.40;98.00;;;;;;5000055;28;20753;-74
2022/06/15 08:39:35;;;;;;;2.67;1.27;;;18.50;98.30;;;;;;4997620;28;20211;-74
2022/06/15 08:42:09;;;;;;;3.83;1.30;;;18.50;98.10;;;;;;5005630;28;20211;-74
2022/06/15 08:44:49;;;;;;;7.30;2.20;;;18.50;98.00;;;;;;4997694;28;20272;-74
2022/06/15 08:47:28;;;;;;;2.53;1.57;;;18.50;98.00;;;;;;5001500;28;20209;-74
2022/06/15 08:50:02;;;;;;;3.93;1.53;;;18.60;98.10;;;;;;5001133;28;20205;-74
2022/06/15 08:52:34;;;;;;;3.33;1.50;;;18.70;97.90;;;;;;5001697;28;20226;-74
2022/06/15 08:55:08;;;;;;;6.93;1.97;;;18.70;97.70;;;;;;5002276;28;20229;-74
2022/06/15 08:57:40;;;;;;;4.63;1.53;;;18.80;97.50;;;;;;4997577;28;20645;-74
2022/06/15 09:00:14;;;;;;;3.17;2.03;;;18.90;97.50;;;;;;5007954;28;20208;-75
2022/06/15 09:02:50;;;;;;;4.90;1.67;;;19.00;97.60;;;;;;5018964;28;20229;-74
2022/06/15 09:05:29;;;;;;;6.90;1.80;;;19.00;97.30;;;;;;4997626;28;20194;-74
2022/06/15 09:08:16;;;;;;;4.60;1.40;;;19.10;97.20;;;;;;4997845;28;20201;-74
2022/06/15 09:10:51;;;;;;;5.33;1.30;;;19.30;97.10;;;;;;4998730;28;20194;-74
2022/06/15 09:13:41;;;;;;;3.27;1.40;;;19.40;97.30;;;;;;5002600;28;20592;-74
2022/06/15 09:16:15;;;;;;;2.07;1.20;;;19.40;96.90;;;;;;4999452;28;20221;-74
2022/06/15 09:18:47;;;;;;;4.73;1.80;;;19.40;96.90;;;;;;4998451;28;20201;-74
2022/06/15 09:21:23;;;;;;;3.97;1.60;;;19.40;97.00;;;;;;4997278;28;20660;-74
2022/06/15 09:23:57;;;;;;;3.93;1.50;;;19.40;96.80;;;;;;5002553;28;20209;-74
2022/06/15 09:26:28;;;;;;;4.10;1.53;;;19.50;97.20;;;;;;5000354;28;20255;-75
2022/06/15 09:29:00;;;;;;;3.63;1.60;;;19.60;97.40;;;;;;4996853;28;20202;-75
2022/06/15 09:31:41;;;;;;;1.93;1.50;;;19.60;97.10;;;;;;4998639;28;20201;-74
2022/06/15 09:34:11;;;;;;;4.35;1.50;;;19.60;97.00;;;;;;4998917;28;20194;-75
2022/06/15 09:36:44;;;;;;;4.97;1.70;;;19.50;97.30;;;;;;5002112;28;20202;-74
2022/06/15 09:39:11;;;;;;;2.20;1.40;;;19.60;97.10;;;;;;4998387;28;20190;-75
2022/06/15 09:41:48;;;;;;;2.10;1.50;;;19.60;97.20;;;;;;4998480;28;20288;-75
2022/06/15 09:44:23;;;;;;;4.53;1.57;;;19.70;97.00;;;;;;4998974;28;20237;-74
2022/06/15 09:46:59;;;;;;;3.93;1.70;;;19.80;96.70;;;;;;5001004;28;20727;-75
2022/06/15 09:49:38;;;;;;;2.70;1.43;;;20.00;96.00;;;;;;4996526;28;20212;-75
2022/06/15 09:52:13;;;;;;;3.07;1.60;;;20.00;96.60;;;;;;4997579;28;20205;-75
2022/06/15 09:54:49;;;;;;;4.77;1.60;;;20.10;96.30;;;;;;4998721;28;20591;-74
2022/06/15 09:57:19;;;;;;;3.50;1.57;;;20.20;95.80;;;;;;4998550;28;20198;-75
2022/06/15 09:59:49;;;;;;;3.07;1.50;;;20.30;95.90;;;;;;4996185;28;20217;-75
2022/06/15 10:02:24;;;;;;;2.23;1.40;;;20.40;95.40;;;;;;4999795;28;20255;-74
2022/06/15 10:04:51;;;;;;;6.17;1.70;;;20.50;95.50;;;;;;5000425;28;20204;-74
2022/06/15 10:07:26;;;;;;;3.00;1.83;;;20.50;95.50;;;;;;5001586;28;20668;-74
2022/06/15 10:09:55;;;;;;;3.87;1.80;;;20.50;95.30;;;;;;4996200;28;20201;-74
2022/06/15 10:13:02;;;;;;;5.03;1.60;;;20.60;95.70;;;;;;4998851;28;20209;-75
2022/06/15 10:15:37;;;;;;;4.00;1.63;;;20.60;95.40;;;;;;4998687;28;20692;-75
2022/06/15 10:18:18;;;;;;;3.23;1.40;;;20.70;95.20;;;;;;4998430;28;20233;-75
2022/06/15 10:21:10;;;;;;;2.63;1.60;;;20.70;95.50;;;;;;4998533;28;20198;-74
2022/06/15 10:23:49;;;;;;;4.72;1.60;;;20.70;95.10;;;;;;4995280;28;20759;-75
2022/06/15 10:26:32;;;;;;;5.63;1.60;;;20.70;94.80;;;;;;5000542;28;20574;-75
2022/06/15 10:29:20;;;;;;;2.67;1.50;;;20.80;94.80;;;;;;5001630;28;20194;-75
2022/06/15 10:31:59;;;;;;;5.18;1.40;;;20.90;94.80;;;;;;5001529;28;20668;-75
2022/06/15 10:34:29;;;;;;;1.80;1.45;;;21.00;94.60;;;;;;5002001;28;20680;-74
2022/06/15 10:36:58;;;;;;;3.38;1.52;;;21.10;94.00;;;;;;5005210;28;20209;-75
2022/06/15 10:39:28;;;;;;;8.45;2.05;;;21.30;93.80;;;;;;5002937;28;20212;-75
2022/06/15 10:42:00;;;;;;;5.05;1.83;;;21.40;93.50;;;;;;5001926;28;20201;-75
2022/06/15 10:44:32;;;;;;;4.93;1.70;;;21.50;93.60;;;;;;5002317;28;20236;-74
2022/06/15 10:47:02;;;;;;;4.28;1.48;;;21.60;93.50;;;;;;5007577;28;21065;-75
2022/06/15 10:49:33;;;;;;;5.78;2.00;;;21.70;93.20;;;;;;4999907;28;20202;-74
2022/06/15 10:52:00;;;;;;;3.00;1.40;;;21.80;93.00;;;;;;5000946;28;20202;-75
2022/06/15 11:02:06;;;;;;;2.75;1.50;;;21.90;93.00;;;;;;5004031;28;20221;-75
2022/06/15 11:03:10;;;;;;;4.65;1.80;;;22.30;92.70;;;;;;5006621;28;20760;-75
2022/06/15 11:05:37;;;;;;;3.17;1.60;;;22.40;93.20;;;;;;5009853;28;20297;-74
2022/06/15 11:08:12;;;;;;;4.60;1.50;;;22.50;92.60;;;;;;5006191;28;20213;-74
2022/06/15 11:10:41;;;;;;;3.92;1.33;;;22.60;92.60;;;;;;5005133;28;20215;-75
2022/06/15 11:13:27;;;;;;;5.60;1.85;;;22.70;91.60;;;;;;5004270;28;20643;-74
2022/06/15 11:19:02;;;;;;;3.25;1.50;;;23.00;91.20;;;;;;4962230;28;20301;-74
2022/06/15 11:21:34;;;;;;;2.78;1.67;;;23.20;91.40;;;;;;4960467;28;20739;-74
2022/06/15 11:24:05;;;;;;;4.13;1.50;;;23.30;91.00;;;;;;4989454;28;20776;-74
2022/06/15 11:26:55;;;;;;;6.18;2.10;;;23.50;91.20;;;;;;4997270;28;20571;-74
2022/06/15 11:29:39;;;;;;;3.03;1.67;;;23.60;90.60;;;;;;5005254;28;20214;-75
2022/06/15 11:32:16;;;;;;;3.00;1.50;;;23.70;90.10;;;;;;5000210;28;20268;-75
2022/06/15 11:34:59;;;;;;;7.32;1.77;;;23.80;90.40;;;;;;5003596;28;20209;-75
2022/06/15 11:37:29;;;;;;;2.80;1.55;;;23.90;89.80;;;;;;5010810;28;20699;-75
2022/06/15 11:40:06;;;;;;;2.60;1.52;;;24.00;89.30;;;;;;4999484;28;20232;-75
2022/06/15 11:42:33;;;;;;;1.85;1.38;;;24.10;89.30;;;;;;4997043;28;20264;-75
2022/06/15 11:45:00;;;;;;;5.57;2.08;;;24.20;89.00;;;;;;5008504;28;20245;-75
2022/06/15 11:47:42;;;;;;;4.07;1.73;;;24.30;88.60;;;;;;4999723;28;20215;-75
2022/06/15 11:50:19;;;;;;;3.17;1.77;;;24.40;87.90;;;;;;4991125;28;20300;-75
2022/06/15 11:52:57;;;;;;;2.65;1.60;;;24.60;88.10;;;;;;4996339;28;20214;-75
2022/06/15 11:55:35;;;;;;;3.08;1.48;;;24.70;87.30;;;;;;5005343;28;20223;-75
2022/06/15 11:58:24;;;;;;;4.97;1.63;;;24.70;87.10;;;;;;5010009;28;20209;-72
2022/06/15 12:01:01;;;;;;;3.50;1.80;;;24.70;87.20;;;;;;4999141;28;20214;-72
2022/06/15 12:03:53;;;;;;;2.45;1.48;;;24.80;86.60;;;;;;5005460;28;20211;-75
2022/06/15 12:06:26;;;;;;;4.35;1.73;;;24.90;86.30;;;;;;5005380;28;20210;-75
2022/06/15 12:09:08;;;;;;;3.60;1.73;;;25.00;85.70;;;;;;5006315;28;20205;-75
2022/06/15 12:14:41;;;;;;;2.35;1.58;;;25.10;85.00;;;;;;5008921;28;20719;-75
2022/06/15 12:17:13;;;;;;;5.15;2.00;;;25.20;84.40;;;;;;5002514;28;20242;-73
2022/06/15 12:19:47;;;;;;;3.97;1.48;;;25.30;84.80;;;;;;5028988;28;20572;-72
2022/06/15 12:22:19;;;;;;;1.40;1.20;;;25.40;84.30;;;;;;4998155;28;20281;-73
2022/06/15 12:24:54;;;;;;;3.72;1.70;;;25.40;84.70;;;;;;5007792;28;20214;-75
2022/06/15 12:27:33;;;;;;;5.07;1.70;;;25.50;84.00;;;;;;4998613;28;20676;-75
2022/06/15 12:30:06;;;;;;;3.17;1.65;;;25.60;83.80;;;;;;5009278;28;20327;-75
2022/06/15 12:32:36;;;;;;;3.78;2.00;;;25.60;83.30;;;;;;5003490;28;20229;-75
2022/06/15 12:35:23;;;;;;;3.85;1.70;;;25.70;83.10;;;;;;5008592;28;21214;-72
2022/06/15 12:37:58;;;;;;;3.10;1.95;;;25.80;83.00;;;;;;4994200;28;20216;-75
2022/06/15 12:40:32;;;;;;;4.90;1.70;;;26.00;82.80;;;;;;4989765;28;20280;-75
2022/06/15 12:43:11;;;;;;;3.83;1.92;;;26.10;82.80;;;;;;5008654;28;20287;-72
2022/06/15 12:45:43;;;;;;;2.72;1.70;;;26.30;83.80;;;;;;5003543;28;20209;-73
2022/06/15 12:48:22;;;;;;;2.00;1.52;;;26.40;82.40;;;;;;5004499;28;20706;-73
2022/06/15 12:50:57;;;;;;;3.95;1.40;;;26.50;81.80;;;;;;4992562;28;20247;-73
2022/06/15 12:53:32;;;;;;;3.63;1.70;;;26.70;81.00;;;;;;4989129;28;20664;-73
2022/06/15 12:56:14;;;;;;;3.55;1.45;;;26.70;81.60;;;;;;4993155;28;20807;-74
2022/06/15 12:58:53;;;;;;;4.85;1.30;;;26.90;82.30;;;;;;5008076;28;20303;-73
2022/06/15 13:01:23;;;;;;;4.78;1.65;;;27.20;80.50;;;;;;5007580;28;20213;-73
2022/06/15 13:04:06;;;;;;;3.55;1.77;;;27.30;80.50;;;;;;5006412;28;20256;-73
2022/06/15 13:06:36;;;;;;;2.35;1.50;;;27.30;81.60;;;;;;5008331;28;20213;-73
2022/06/15 13:09:18;;;;;;;2.60;1.48;;;27.30;81.80;;;;;;5006391;28;20213;-73
2022/06/15 13:12:00;;;;;;;4.45;1.70;;;27.30;82.10;;;;;;5003244;28;20712;-74
2022/06/15 13:14:33;;;;;;;3.92;1.90;;;27.40;82.10;;;;;;5006368;28;20213;-73
2022/06/15 13:17:08;;;;;;;1.60;1.40;;;27.40;78.90;;;;;;5005203;28;20699;-73
2022/06/15 13:19:40;;;;;;;2.05;1.60;;;27.30;80.00;;;;;;5008534;28;20219;-73
2022/06/15 13:22:14;;;;;;;3.53;1.70;;;27.40;80.60;;;;;;5008434;28;20209;-73
2022/06/15 13:24:57;;;;;;;2.05;1.50;;;27.40;79.40;;;;;;5008336;28;20203;-73
2022/06/15 13:27:29;;;;;;;2.22;1.65;;;27.40;79.40;;;;;;5008910;28;20694;-73